createdAt,value
2024-03-04T00:00:23.884Z,2.03
2024-03-04T00:02:51.261Z,1.45
2024-03-04T00:05:18.692Z,1.80
2024-03-04T00:07:46.774Z,1.80
2024-03-04T00:10:14.237Z,1.25
2024-03-04T00:12:41.592Z,1.00
2024-03-04T00:15:10.014Z,1.13
2024-03-04T00:17:37.404Z,0.80
2024-03-04T00:20:07.988Z,0.70
2024-03-04T00:22:35.524Z,0.80
2024-03-04T00:25:03.521Z,0.90
2024-03-04T00:27:30.831Z,0.60
2024-03-04T00:29:58.877Z,0.57
2024-03-04T00:32:26.900Z,0.70
2024-03-04T00:34:55.142Z,0.68
2024-03-04T00:37:22.445Z,0.60
2024-03-04T00:39:49.787Z,0.70
2024-03-04T00:42:18.828Z,0.70
2024-03-04T00:44:46.270Z,0.55
2024-03-04T00:47:13.649Z,0.60
2024-03-04T00:49:40.945Z,0.70
2024-03-04T00:52:08.283Z,0.98
2024-03-04T00:54:35.810Z,0.80
2024-03-04T00:57:05.067Z,1.00
2024-03-04T00:59:32.474Z,1.10
2024-03-04T01:01:59.818Z,1.30
2024-03-04T01:04:27.304Z,1.10
2024-03-04T01:06:54.652Z,1.17
2024-03-04T01:09:22.078Z,1.42
2024-03-04T01:11:49.566Z,1.20
2024-03-04T01:14:16.960Z,1.55
2024-03-04T01:16:44.352Z,1.33
2024-03-04T01:19:12.875Z,1.30
2024-03-04T01:21:40.188Z,1.90
2024-03-04T01:24:07.642Z,1.42
2024-03-04T01:26:35.360Z,1.67
2024-03-04T01:29:03.066Z,1.80
2024-03-04T01:31:31.062Z,1.30
2024-03-04T01:33:58.532Z,1.40
2024-03-04T01:36:25.975Z,1.55
2024-03-04T01:38:54.778Z,1.40
2024-03-04T01:41:22.128Z,1.70
2024-03-04T01:43:49.509Z,1.60
2024-03-04T01:46:16.830Z,1.50
2024-03-04T01:48:44.418Z,1.52
2024-03-04T01:51:12.087Z,1.50
2024-03-04T01:53:39.677Z,2.00
2024-03-04T01:56:08.770Z,2.00
2024-03-04T01:58:40.046Z,1.77
2024-03-04T02:01:07.662Z,2.10
2024-03-04T02:03:36.746Z,2.45
2024-03-04T02:06:05.231Z,2.80
2024-03-04T02:08:33.038Z,2.60
2024-03-04T02:11:00.380Z,3.58
2024-03-04T02:13:28.864Z,2.95
2024-03-04T02:15:56.560Z,3.30
2024-03-04T02:18:24.041Z,3.70
2024-03-04T02:21:01.929Z,3.30
2024-03-04T02:23:29.362Z,3.40
2024-03-04T02:26:00.623Z,3.50
2024-03-04T02:28:29.670Z,3.75
2024-03-04T02:31:02.102Z,3.83
2024-03-04T02:33:30.792Z,3.72
2024-03-04T02:35:58.258Z,4.07
2024-03-04T02:38:25.836Z,4.22
2024-03-04T02:40:54.550Z,4.10
2024-03-04T02:43:23.053Z,4.05
2024-03-04T02:45:50.374Z,3.88
2024-03-04T02:48:17.720Z,4.22
2024-03-04T02:50:45.146Z,5.35
2024-03-04T02:53:12.744Z,4.70
2024-03-04T02:55:40.580Z,5.30
2024-03-04T02:58:08.165Z,5.35
2024-03-04T03:00:35.826Z,5.50
2024-03-04T03:03:03.446Z,5.80
2024-03-04T03:05:30.980Z,5.70
2024-03-04T03:07:58.282Z,5.88
2024-03-04T03:10:25.948Z,5.40
2024-03-04T03:12:53.430Z,5.68
2024-03-04T03:15:20.793Z,5.40
2024-03-04T03:17:48.466Z,6.60
2024-03-04T03:20:19.566Z,5.45
2024-03-04T03:22:47.589Z,5.40
2024-03-04T03:25:15.536Z,5.25
2024-03-04T03:27:43.916Z,5.40
2024-03-04T03:30:12.149Z,5.25
2024-03-04T03:32:41.102Z,5.40
2024-03-04T03:35:09.279Z,5.25
2024-03-04T03:37:37.105Z,5.80
2024-03-04T03:40:05.677Z,5.65
2024-03-04T03:42:34.039Z,6.30
2024-03-04T03:45:02.067Z,6.47
2024-03-04T03:47:31.300Z,6.90
2024-03-04T03:49:58.908Z,6.60
2024-03-04T03:52:26.559Z,6.03
2024-03-04T03:54:53.945Z,6.47
2024-03-04T03:57:21.335Z,6.63
2024-03-04T03:59:48.858Z,6.65
2024-03-04T04:02:16.241Z,6.93
2024-03-04T04:04:43.741Z,6.63
2024-03-04T04:07:11.078Z,6.82
2024-03-04T04:09:38.443Z,7.32
2024-03-04T04:12:07.810Z,6.90
2024-03-04T04:14:35.921Z,6.63
2024-03-04T04:17:03.203Z,6.78
2024-03-04T04:19:30.652Z,6.25
2024-03-04T04:21:58.099Z,6.20
2024-03-04T04:24:25.986Z,5.88
2024-03-04T04:26:53.434Z,6.80
2024-03-04T04:29:20.892Z,6.40
2024-03-04T04:31:48.228Z,6.88
2024-03-04T04:34:15.626Z,6.50
2024-03-04T04:36:51.069Z,6.53
2024-03-04T04:39:18.480Z,7.00
2024-03-04T04:41:46.406Z,8.00
2024-03-04T04:44:13.806Z,7.40
2024-03-04T04:46:41.484Z,7.47
2024-03-04T04:49:09.391Z,7.78
2024-03-04T04:51:36.847Z,8.25
2024-03-04T04:54:04.272Z,8.30
2024-03-04T04:56:31.719Z,7.57
2024-03-04T04:58:59.077Z,7.40
2024-03-04T05:01:29.828Z,8.20
2024-03-04T05:04:14.828Z,8.55
2024-03-04T05:06:45.183Z,8.30
2024-03-04T05:09:12.612Z,7.65
2024-03-04T05:11:39.943Z,7.70
2024-03-04T05:14:10.279Z,7.97
2024-03-04T05:16:37.631Z,8.40
2024-03-04T05:19:05.106Z,8.55
2024-03-04T05:21:32.448Z,8.77
2024-03-04T05:23:59.804Z,9.35
2024-03-04T05:26:27.139Z,9.38
2024-03-04T05:28:54.503Z,9.50
2024-03-04T05:31:21.851Z,9.20
2024-03-04T05:33:49.204Z,8.93
2024-03-04T05:36:16.901Z,9.45
2024-03-04T05:38:44.760Z,9.40
2024-03-04T05:41:12.095Z,10.27
2024-03-04T05:43:39.603Z,9.35
2024-03-04T05:46:06.986Z,10.32
2024-03-04T05:48:34.548Z,10.48
2024-03-04T05:51:04.651Z,11.00
2024-03-04T05:53:32.193Z,10.23
2024-03-04T05:55:59.587Z,11.10
2024-03-04T05:58:27.613Z,10.20
2024-03-04T06:00:57.983Z,11.38
2024-03-04T06:03:25.472Z,11.68
2024-03-04T06:05:52.778Z,11.00
2024-03-04T06:08:20.387Z,10.40
2024-03-04T06:10:47.970Z,10.48
2024-03-04T06:13:15.696Z,10.90
2024-03-04T06:15:43.281Z,11.80
2024-03-04T06:18:10.721Z,11.90
2024-03-04T06:20:38.056Z,12.85
2024-03-04T06:23:05.644Z,13.23
2024-03-04T06:25:33.124Z,12.88
2024-03-04T06:28:02.106Z,13.63
2024-03-04T06:30:29.623Z,14.25
2024-03-04T06:32:57.019Z,13.90
2024-03-04T06:35:24.410Z,13.48
2024-03-04T06:37:52.164Z,13.65
2024-03-04T06:40:19.743Z,14.02
2024-03-04T06:42:47.096Z,14.77
2024-03-04T06:45:14.462Z,15.38
2024-03-04T06:47:41.737Z,15.35
2024-03-04T06:50:09.089Z,15.48
2024-03-04T06:52:36.631Z,15.80
2024-03-04T06:55:04.368Z,15.55
2024-03-04T06:57:34.354Z,15.20
2024-03-04T07:00:02.054Z,15.95
2024-03-04T07:02:29.436Z,17.25
2024-03-04T07:04:56.824Z,17.45
2024-03-04T07:07:26.057Z,18.20
2024-03-04T07:09:53.537Z,16.63
2024-03-04T07:12:20.944Z,17.20
2024-03-04T07:14:48.358Z,18.30
2024-03-04T07:17:15.789Z,19.30
2024-03-04T07:19:43.120Z,16.25
2024-03-04T07:22:10.659Z,17.48
2024-03-04T07:24:38.084Z,18.42
2024-03-04T07:27:05.654Z,19.52
2024-03-04T07:29:38.695Z,19.05
2024-03-04T07:32:10.749Z,19.27
2024-03-04T07:34:38.159Z,18.15
2024-03-04T07:37:05.588Z,19.08
2024-03-04T07:39:32.980Z,18.80
2024-03-04T07:42:00.302Z,18.52
2024-03-04T07:44:27.704Z,19.52
2024-03-04T07:46:55.202Z,19.63
2024-03-04T07:49:22.826Z,19.65
2024-03-04T07:51:50.421Z,20.50
2024-03-04T07:54:17.753Z,20.45
2024-03-04T07:56:45.172Z,20.05
2024-03-04T07:59:12.490Z,19.30
2024-03-04T08:01:47.416Z,19.45
2024-03-04T08:04:14.834Z,20.30
2024-03-04T08:06:42.279Z,19.88
2024-03-04T08:09:11.753Z,20.25
2024-03-04T08:11:39.346Z,19.80
2024-03-04T08:14:06.799Z,19.85
2024-03-04T08:16:34.218Z,18.48
2024-03-04T08:19:01.638Z,17.83
2024-03-04T08:21:29.029Z,19.90
2024-03-04T08:23:56.400Z,20.00
2024-03-04T08:26:23.848Z,19.23
2024-03-04T08:28:52.872Z,19.42
2024-03-04T08:31:20.489Z,18.42
2024-03-04T08:33:47.855Z,19.17
2024-03-04T08:36:15.314Z,19.42
2024-03-04T08:38:42.622Z,18.95
2024-03-04T08:41:10.016Z,18.30
2024-03-04T08:43:37.392Z,19.20
2024-03-04T08:46:05.512Z,18.98
2024-03-04T08:48:32.903Z,18.70
2024-03-04T08:51:00.301Z,19.25
2024-03-04T08:53:29.190Z,20.20
2024-03-04T08:55:57.413Z,20.75
2024-03-04T08:58:24.791Z,19.55
2024-03-04T09:00:52.288Z,20.83
2024-03-04T09:03:19.582Z,18.33
2024-03-04T09:05:46.975Z,16.85
2024-03-04T09:08:14.377Z,17.40
2024-03-04T09:10:41.863Z,16.73
2024-03-04T09:13:09.506Z,16.98
2024-03-04T09:15:37.335Z,16.42
2024-03-04T09:18:06.291Z,15.77
2024-03-04T09:20:33.710Z,17.02
2024-03-04T09:23:01.461Z,15.57
2024-03-04T09:25:28.906Z,15.88
2024-03-04T09:27:56.465Z,16.35
2024-03-04T09:30:24.348Z,15.50
2024-03-04T09:32:51.901Z,14.48
2024-03-04T09:35:19.299Z,14.88
2024-03-04T09:37:46.700Z,15.43
2024-03-04T09:40:14.417Z,15.13
2024-03-04T09:42:49.284Z,15.32
2024-03-04T09:45:21.002Z,14.45
2024-03-04T09:47:54.489Z,14.68
2024-03-04T09:50:23.619Z,14.37
2024-03-04T09:52:52.531Z,14.25
2024-03-04T09:55:19.928Z,16.05
2024-03-04T09:57:48.029Z,15.55
2024-03-04T10:00:15.706Z,16.50
2024-03-04T10:02:46.839Z,16.25
2024-03-04T10:05:15.546Z,15.35
2024-03-04T10:07:43.227Z,15.50
2024-03-04T10:10:14.516Z,15.85
2024-03-04T10:12:42.027Z,15.45
2024-03-04T10:15:13.742Z,14.77
2024-03-04T10:17:42.437Z,13.50
2024-03-04T10:20:13.053Z,14.77
2024-03-04T10:22:41.709Z,13.57
2024-03-04T10:25:10.280Z,12.73
2024-03-04T10:27:39.986Z,11.93
2024-03-04T10:30:10.456Z,13.15
2024-03-04T10:32:51.760Z,13.10
2024-03-04T10:35:20.070Z,10.95
2024-03-04T10:37:49.733Z,10.23
2024-03-04T10:40:21.501Z,11.10
2024-03-04T10:42:49.094Z,9.20
2024-03-04T10:45:16.814Z,9.30
2024-03-04T10:47:46.542Z,8.27
2024-03-04T10:50:16.247Z,10.10
2024-03-04T10:52:46.714Z,10.73
2024-03-04T10:55:14.760Z,9.35
2024-03-04T10:57:45.110Z,7.72
2024-03-04T11:00:32.298Z,7.80
2024-03-04T11:03:11.112Z,10.27
2024-03-04T11:05:41.779Z,10.48
2024-03-04T11:08:28.568Z,11.60
2024-03-04T11:11:14.207Z,11.05
2024-03-04T11:14:04.690Z,11.65
2024-03-04T11:16:41.779Z,10.88
2024-03-04T11:19:28.658Z,11.13
2024-03-04T11:21:58.258Z,10.90
2024-03-04T11:24:25.917Z,10.82
2024-03-04T11:26:53.938Z,9.88
2024-03-04T11:29:22.341Z,10.30
2024-03-04T11:32:00.821Z,10.02
2024-03-04T11:34:28.341Z,8.70
2024-03-04T11:37:00.088Z,8.23
2024-03-04T11:39:27.574Z,7.13
2024-03-04T11:41:55.663Z,5.10
2024-03-04T11:44:29.966Z,5.80
2024-03-04T11:46:58.438Z,7.75
2024-03-04T11:49:33.636Z,9.30
2024-03-04T11:52:08.715Z,9.52
2024-03-04T11:54:36.725Z,8.73
2024-03-04T11:57:08.357Z,8.55
2024-03-04T11:59:41.380Z,8.02
2024-03-04T12:02:10.236Z,7.60
2024-03-04T12:04:38.358Z,7.88
2024-03-04T12:07:06.650Z,7.38
2024-03-04T12:12:07.018Z,8.10
2024-03-04T12:14:34.610Z,8.20
2024-03-04T12:17:01.934Z,8.13
2024-03-04T12:19:29.386Z,7.72
2024-03-04T12:21:56.751Z,6.78
2024-03-04T12:24:27.591Z,7.05
2024-03-04T12:26:56.863Z,6.28
2024-03-04T12:29:25.635Z,5.70
2024-03-04T12:31:56.734Z,4.97
2024-03-04T12:34:28.217Z,5.68
2024-03-04T12:37:00.402Z,6.00
2024-03-04T12:39:27.810Z,5.43
2024-03-04T12:41:55.266Z,4.60
2024-03-04T12:44:23.426Z,4.13
2024-03-04T12:46:51.306Z,3.88
2024-03-04T12:49:20.000Z,3.97
2024-03-04T12:51:48.013Z,4.13
2024-03-04T12:54:27.834Z,3.88
2024-03-04T12:56:56.023Z,4.43
2024-03-04T12:59:24.159Z,4.30
2024-03-04T13:01:51.822Z,3.83
2024-03-04T13:04:19.369Z,3.70
2024-03-04T13:06:47.075Z,3.50
2024-03-04T13:09:17.055Z,3.50
2024-03-04T13:11:44.644Z,3.35
2024-03-04T13:14:13.376Z,2.83
2024-03-04T13:16:40.751Z,3.10
2024-03-04T13:19:08.090Z,3.47
2024-03-04T13:21:35.455Z,3.30
2024-03-04T13:24:04.068Z,3.55
2024-03-04T13:26:31.698Z,2.83
2024-03-04T13:28:59.247Z,3.08
2024-03-04T13:31:26.595Z,3.63
2024-03-04T13:33:53.940Z,3.30
2024-03-04T13:36:21.332Z,3.33
2024-03-04T13:38:48.661Z,2.97
2024-03-04T13:41:15.936Z,3.20
2024-03-04T13:43:43.505Z,3.10
2024-03-04T13:46:11.051Z,2.83
2024-03-04T13:48:38.379Z,2.80
2024-03-04T13:51:05.960Z,2.90
2024-03-04T13:53:33.284Z,2.70
2024-03-04T13:56:00.729Z,3.10
2024-03-04T13:58:28.149Z,2.40
2024-03-04T14:00:55.529Z,2.63
2024-03-04T14:03:22.976Z,2.50
2024-03-04T14:05:50.390Z,2.85
2024-03-04T14:08:17.707Z,2.80
2024-03-04T14:10:45.465Z,2.80
2024-03-04T14:13:15.067Z,3.15
2024-03-04T14:15:45.573Z,2.70
2024-03-04T14:18:13.238Z,2.65
2024-03-04T14:20:40.552Z,2.60
2024-03-04T14:23:07.919Z,3.08
2024-03-04T14:25:35.824Z,2.50
2024-03-04T14:28:03.297Z,2.58
2024-03-04T14:30:31.580Z,2.38
2024-03-04T14:32:59.044Z,2.42
2024-03-04T14:35:28.601Z,2.80
2024-03-04T14:37:56.391Z,2.85
2024-03-04T14:40:23.797Z,2.35
2024-03-04T14:42:51.232Z,2.17
2024-03-04T14:45:18.983Z,2.00
2024-03-04T14:47:46.315Z,2.30
2024-03-04T14:50:14.382Z,2.38
2024-03-04T14:52:41.739Z,2.13
2024-03-04T14:55:09.512Z,2.10
2024-03-04T14:57:36.991Z,2.50
2024-03-04T15:00:11.850Z,1.83
2024-03-04T15:02:43.616Z,2.00
2024-03-04T15:05:12.849Z,2.03
2024-03-04T15:07:43.025Z,2.22
2024-03-04T15:10:11.418Z,2.50
2024-03-04T15:12:39.665Z,2.40
2024-03-04T15:15:12.637Z,2.13
2024-03-04T15:17:40.178Z,2.22
2024-03-04T15:20:12.020Z,2.20
2024-03-04T15:22:40.769Z,2.00
2024-03-04T15:25:09.137Z,2.08
2024-03-04T15:27:36.746Z,1.80
2024-03-04T15:30:08.407Z,2.35
2024-03-04T15:32:40.804Z,2.15
2024-03-04T15:35:09.124Z,2.00
2024-03-04T15:37:37.524Z,1.63
2024-03-04T15:40:09.194Z,1.60
2024-03-04T15:42:37.204Z,1.90
2024-03-04T15:45:05.879Z,1.83
2024-03-04T15:47:33.375Z,2.00
2024-03-04T15:50:00.708Z,1.90
2024-03-04T15:52:28.095Z,1.70
2024-03-04T15:54:55.644Z,1.90
2024-03-04T15:57:23.054Z,1.45
2024-03-04T15:59:50.882Z,1.70
2024-03-04T16:02:18.492Z,1.90
2024-03-04T16:04:52.026Z,1.60
2024-03-04T16:07:19.516Z,1.60
2024-03-04T16:09:46.948Z,1.80
2024-03-04T16:12:15.324Z,1.85
2024-03-04T16:14:42.745Z,1.75
2024-03-04T16:17:10.132Z,1.88
2024-03-04T16:19:37.503Z,2.25
2024-03-04T16:22:05.023Z,1.77
2024-03-04T16:24:32.441Z,2.10
2024-03-04T16:26:59.820Z,1.70
2024-03-04T16:29:28.534Z,1.83
2024-03-04T16:31:56.101Z,1.75
2024-03-04T16:34:23.588Z,1.55
2024-03-04T16:36:51.018Z,1.92
2024-03-04T16:39:18.421Z,1.80
2024-03-04T16:41:45.781Z,2.35
2024-03-04T16:44:16.746Z,2.22
2024-03-04T16:46:44.413Z,1.85
2024-03-04T16:49:12.198Z,2.10
2024-03-04T16:51:40.319Z,1.88
2024-03-04T16:54:07.668Z,2.03
2024-03-04T16:56:35.115Z,2.10
2024-03-04T16:59:05.572Z,2.13
2024-03-04T17:01:37.639Z,2.55
2024-03-04T17:06:34.675Z,1.70
2024-03-04T17:09:01.988Z,1.75
2024-03-04T17:11:29.425Z,2.08
2024-03-04T17:13:57.356Z,2.20
2024-03-04T17:16:24.857Z,1.77
2024-03-04T17:18:52.302Z,2.20
2024-03-04T17:21:19.700Z,2.30
2024-03-04T17:23:47.028Z,1.88
2024-03-04T17:26:14.453Z,2.17
2024-03-04T17:28:41.915Z,2.47
2024-03-04T17:31:09.353Z,2.85
2024-03-04T17:33:36.895Z,2.80
2024-03-04T17:36:05.412Z,2.83
2024-03-04T17:38:32.882Z,2.90
2024-03-04T17:41:00.318Z,3.17
2024-03-04T17:43:27.842Z,3.13
2024-03-04T17:45:55.184Z,2.80
2024-03-04T17:48:22.569Z,2.72
2024-03-04T17:50:49.928Z,2.72
2024-03-04T17:53:17.262Z,2.67
2024-03-04T17:55:44.561Z,2.40
2024-03-04T17:58:16.904Z,2.50
2024-03-04T18:00:50.166Z,2.95
2024-03-04T18:03:18.258Z,2.97
2024-03-04T18:05:46.159Z,2.70
2024-03-04T18:08:13.545Z,2.30
2024-03-04T18:10:42.192Z,2.38
2024-03-04T18:13:09.688Z,3.10
2024-03-04T18:15:37.546Z,3.75
2024-03-04T18:18:05.244Z,3.70
2024-03-04T18:20:32.666Z,3.92
2024-03-04T18:23:00.068Z,3.97
2024-03-04T18:25:27.793Z,4.50
2024-03-04T18:27:55.211Z,4.57
2024-03-04T18:30:22.606Z,4.35
2024-03-04T18:32:50.144Z,4.45
2024-03-04T18:35:17.539Z,4.43
2024-03-04T18:37:45.697Z,4.20
2024-03-04T18:40:13.515Z,4.53
2024-03-04T18:42:43.077Z,4.95
2024-03-04T18:45:10.625Z,4.47
2024-03-04T18:47:37.998Z,4.88
2024-03-04T18:50:05.767Z,19.05
2024-03-04T18:52:33.289Z,21.15
2024-03-04T18:55:00.687Z,18.02
2024-03-04T18:57:28.041Z,16.60
2024-03-04T18:59:55.416Z,13.98
2024-03-04T19:02:26.849Z,12.45
2024-03-04T19:04:54.625Z,13.48
2024-03-04T19:07:22.150Z,12.45
2024-03-04T19:09:49.524Z,12.80
2024-03-04T19:12:16.859Z,12.10
2024-03-04T19:14:44.421Z,11.15
2024-03-04T19:17:11.864Z,12.05
2024-03-04T19:19:39.240Z,11.95
2024-03-04T19:22:06.772Z,11.88
2024-03-04T19:24:34.352Z,10.18
2024-03-04T19:27:05.022Z,9.45
2024-03-04T19:29:32.966Z,8.32
2024-03-04T19:32:00.389Z,8.07
2024-03-04T19:34:28.001Z,6.68
2024-03-04T19:36:57.282Z,6.72
2024-03-04T19:39:25.002Z,6.63
2024-03-04T19:41:52.600Z,6.25
2024-03-04T19:44:20.013Z,6.40
2024-03-04T19:46:48.108Z,6.93
2024-03-04T19:49:15.616Z,6.40
2024-03-04T19:51:43.141Z,6.57
2024-03-04T19:54:10.524Z,6.80
2024-03-04T19:56:37.995Z,6.72
2024-03-04T19:59:05.417Z,7.32
2024-03-04T20:01:32.979Z,7.20
2024-03-04T20:04:00.434Z,7.68
2024-03-04T20:06:27.866Z,8.55
2024-03-04T20:08:55.489Z,9.07
2024-03-04T20:11:22.970Z,10.57
2024-03-04T20:13:50.609Z,10.88
2024-03-04T20:16:18.234Z,10.80
2024-03-04T20:18:45.720Z,11.73
2024-03-04T20:21:15.716Z,12.20
2024-03-04T20:23:46.021Z,11.38
2024-03-04T20:26:13.694Z,12.13
2024-03-04T20:28:41.587Z,11.27
2024-03-04T20:31:09.069Z,10.63
2024-03-04T20:33:36.543Z,11.15
2024-03-04T20:36:05.655Z,9.88
2024-03-04T20:38:33.232Z,10.30
2024-03-04T20:41:00.911Z,9.07
2024-03-04T20:43:28.659Z,8.95
2024-03-04T20:45:56.035Z,8.93
2024-03-04T20:48:25.726Z,9.40
2024-03-04T20:50:53.549Z,9.20
2024-03-04T20:53:21.014Z,8.52
2024-03-04T20:55:48.528Z,8.88
2024-03-04T20:58:15.955Z,9.95
2024-03-04T21:00:43.359Z,8.93
2024-03-04T21:03:11.049Z,8.73
2024-03-04T21:05:38.426Z,8.80
2024-03-04T21:08:07.101Z,8.45
2024-03-04T21:10:34.734Z,8.65
2024-03-04T21:13:02.472Z,8.65
2024-03-04T21:15:29.920Z,8.13
2024-03-04T21:17:58.830Z,8.25
2024-03-04T21:20:27.696Z,8.50
2024-03-04T21:22:56.174Z,8.88
2024-03-04T21:25:23.957Z,8.95
2024-03-04T21:27:53.916Z,10.20
2024-03-04T21:30:22.214Z,9.50
2024-03-04T21:32:49.986Z,9.60
2024-03-04T21:35:17.518Z,10.27
2024-03-04T21:37:45.856Z,11.43
2024-03-04T21:40:14.894Z,11.85
2024-03-04T21:42:45.377Z,10.18
2024-03-04T21:45:13.618Z,10.43
2024-03-04T21:47:41.349Z,10.18
2024-03-04T21:50:10.993Z,10.07
2024-03-04T21:52:39.573Z,9.88
2024-03-04T21:55:07.896Z,9.88
2024-03-04T21:57:35.775Z,11.32
2024-03-04T22:00:03.761Z,10.13
2024-03-04T22:02:31.134Z,9.73
2024-03-04T22:04:58.767Z,9.98
2024-03-04T22:07:26.724Z,9.82
2024-03-04T22:09:54.180Z,9.63
2024-03-04T22:12:21.951Z,9.80
2024-03-04T22:14:49.348Z,9.98
2024-03-04T22:17:16.678Z,9.50
2024-03-04T22:19:44.121Z,9.85
2024-03-04T22:22:11.496Z,9.82
2024-03-04T22:24:38.873Z,9.70
2024-03-04T22:27:06.871Z,9.60
2024-03-04T22:29:34.220Z,9.77
2024-03-04T22:32:01.708Z,10.63
2024-03-04T22:34:29.209Z,10.30
2024-03-04T22:36:58.016Z,9.75
2024-03-04T22:39:25.310Z,10.57
2024-03-04T22:41:52.749Z,10.57
2024-03-04T22:44:20.080Z,11.00
2024-03-04T22:46:47.782Z,10.77
2024-03-04T22:49:15.258Z,11.52
2024-03-04T22:51:42.694Z,12.15
2024-03-04T22:54:10.019Z,10.60
2024-03-04T22:56:37.381Z,10.85
2024-03-04T22:59:07.330Z,10.48
2024-03-04T23:01:34.803Z,10.10
2024-03-04T23:04:02.204Z,9.60
2024-03-04T23:06:29.592Z,9.48
2024-03-04T23:08:56.910Z,10.07
2024-03-04T23:11:25.122Z,9.50
2024-03-04T23:13:52.689Z,9.73
2024-03-04T23:16:20.156Z,9.95
2024-03-04T23:18:47.635Z,9.85
2024-03-04T23:21:14.899Z,9.30
2024-03-04T23:23:42.617Z,9.50
2024-03-04T23:26:10.876Z,9.43
2024-03-04T23:28:48.395Z,9.15
2024-03-04T23:31:16.405Z,10.00
2024-03-04T23:33:44.514Z,9.57
2024-03-04T23:36:11.852Z,9.73
2024-03-04T23:38:39.643Z,10.02
2024-03-04T23:41:07.497Z,9.77
2024-03-04T23:43:35.924Z,10.95
2024-03-04T23:46:04.575Z,9.82
2024-03-04T23:48:31.844Z,11.07
2024-03-04T23:50:59.161Z,9.30
2024-03-04T23:53:32.675Z,10.60
2024-03-04T23:56:01.144Z,9.88
2024-03-04T23:58:28.654Z,10.43
